sensor_id;sensor_type;location;lat;lon;timestamp;P1;durP1;ratioP1;P2;durP2;ratioP2
45764;SDS011;31474;45.332;10.230;2022-12-18T00:02:16;20.85;;;14.48;;
45764;SDS011;31474;45.332;10.230;2022-12-18T00:04:41;24.75;;;15.18;;
45764;SDS011;31474;45.332;10.230;2022-12-18T00:07:07;20.58;;;15.18;;
45764;SDS011;31474;45.332;10.230;2022-12-18T00:09:33;22.25;;;15.45;;
45764;SDS011;31474;45.332;10.230;2022-12-18T00:11:58;21.20;;;14.10;;
45764;SDS011;31474;45.332;10.230;2022-12-18T00:14:24;22.63;;;14.27;;
45764;SDS011;31474;45.332;10.230;2022-12-18T00:16:50;23.27;;;14.45;;
45764;SDS011;31474;45.332;10.230;2022-12-18T00:19:15;20.65;;;14.32;;
45764;SDS011;31474;45.332;10.230;2022-12-18T00:21:42;17.92;;;13.15;;
45764;SDS011;31474;45.332;10.230;2022-12-18T00:24:09;20.55;;;13.73;;
45764;SDS011;31474;45.332;10.230;2022-12-18T00:26:36;19.15;;;14.23;;
45764;SDS011;31474;45.332;10.230;2022-12-18T00:29:07;18.65;;;12.18;;
45764;SDS011;31474;45.332;10.230;2022-12-18T00:31:37;17.50;;;13.13;;
45764;SDS011;31474;45.332;10.230;2022-12-18T00:34:03;18.60;;;13.05;;
45764;SDS011;31474;45.332;10.230;2022-12-18T00:36:32;18.42;;;12.65;;
45764;SDS011;31474;45.332;10.230;2022-12-18T00:39:00;21.70;;;12.73;;
45764;SDS011;31474;45.332;10.230;2022-12-18T00:41:28;18.35;;;12.57;;
45764;SDS011;31474;45.332;10.230;2022-12-18T00:44:13;18.27;;;12.05;;
45764;SDS011;31474;45.332;10.230;2022-12-18T00:46:40;20.40;;;11.93;;
45764;SDS011;31474;45.332;10.230;2022-12-18T00:49:06;18.27;;;12.57;;
45764;SDS011;31474;45.332;10.230;2022-12-18T00:51:32;18.83;;;12.32;;
45764;SDS011;31474;45.332;10.230;2022-12-18T00:53:58;18.63;;;11.40;;
45764;SDS011;31474;45.332;10.230;2022-12-18T00:56:24;14.13;;;11.35;;
45764;SDS011;31474;45.332;10.230;2022-12-18T00:58:49;16.63;;;11.98;;
45764;SDS011;31474;45.332;10.230;2022-12-18T01:01:15;15.63;;;11.10;;
45764;SDS011;31474;45.332;10.230;2022-12-18T01:03:41;18.02;;;11.93;;
45764;SDS011;31474;45.332;10.230;2022-12-18T01:06:08;17.50;;;11.18;;
45764;SDS011;31474;45.332;10.230;2022-12-18T01:08:36;16.45;;;11.02;;
45764;SDS011;31474;45.332;10.230;2022-12-18T01:11:07;16.52;;;10.75;;
45764;SDS011;31474;45.332;10.230;2022-12-18T01:13:34;19.13;;;11.90;;
45764;SDS011;31474;45.332;10.230;2022-12-18T01:16:00;15.30;;;10.93;;
45764;SDS011;31474;45.332;10.230;2022-12-18T01:18:25;17.05;;;11.25;;
45764;SDS011;31474;45.332;10.230;2022-12-18T01:20:51;16.33;;;11.10;;
45764;SDS011;31474;45.332;10.230;2022-12-18T01:23:17;13.98;;;10.63;;
45764;SDS011;31474;45.332;10.230;2022-12-18T01:25:42;14.68;;;10.82;;
45764;SDS011;31474;45.332;10.230;2022-12-18T01:28:08;17.55;;;10.57;;
45764;SDS011;31474;45.332;10.230;2022-12-18T01:30:33;16.27;;;11.05;;
45764;SDS011;31474;45.332;10.230;2022-12-18T01:32:59;15.85;;;10.38;;
45764;SDS011;31474;45.332;10.230;2022-12-18T01:35:25;17.17;;;11.63;;
45764;SDS011;31474;45.332;10.230;2022-12-18T01:37:53;14.57;;;10.60;;
45764;SDS011;31474;45.332;10.230;2022-12-18T01:40:20;17.17;;;11.88;;
45764;SDS011;31474;45.332;10.230;2022-12-18T01:42:49;16.02;;;11.20;;
45764;SDS011;31474;45.332;10.230;2022-12-18T01:45:29;19.17;;;10.82;;
45764;SDS011;31474;45.332;10.230;2022-12-18T01:47:57;15.38;;;10.88;;
45764;SDS011;31474;45.332;10.230;2022-12-18T01:50:34;18.80;;;11.38;;
45764;SDS011;31474;45.332;10.230;2022-12-18T01:53:07;17.75;;;12.30;;
45764;SDS011;31474;45.332;10.230;2022-12-18T01:58:08;17.00;;;11.68;;
45764;SDS011;31474;45.332;10.230;2022-12-18T02:00:34;19.25;;;13.45;;
45764;SDS011;31474;45.332;10.230;2022-12-18T02:03:00;20.83;;;13.98;;
45764;SDS011;31474;45.332;10.230;2022-12-18T02:08:10;22.73;;;14.85;;
45764;SDS011;31474;45.332;10.230;2022-12-18T02:18:36;23.73;;;14.40;;
45764;SDS011;31474;45.332;10.230;2022-12-18T02:21:14;21.30;;;15.95;;
45764;SDS011;31474;45.332;10.230;2022-12-18T02:24:18;26.88;;;15.90;;
45764;SDS011;31474;45.332;10.230;2022-12-18T02:27:00;29.17;;;18.42;;
45764;SDS011;31474;45.332;10.230;2022-12-18T02:29:53;21.92;;;15.63;;
45764;SDS011;31474;45.332;10.230;2022-12-18T02:32:31;23.88;;;15.52;;
45764;SDS011;31474;45.332;10.230;2022-12-18T02:35:02;21.67;;;15.20;;
45764;SDS011;31474;45.332;10.230;2022-12-18T02:37:31;25.80;;;17.60;;
45764;SDS011;31474;45.332;10.230;2022-12-18T02:39:58;23.52;;;15.60;;
45764;SDS011;31474;45.332;10.230;2022-12-18T02:42:24;31.63;;;18.77;;
45764;SDS011;31474;45.332;10.230;2022-12-18T02:44:51;21.80;;;15.15;;
45764;SDS011;31474;45.332;10.230;2022-12-18T02:47:18;22.42;;;14.88;;
45764;SDS011;31474;45.332;10.230;2022-12-18T02:52:42;19.88;;;14.70;;
45764;SDS011;31474;45.332;10.230;2022-12-18T03:03:11;22.52;;;16.08;;
45764;SDS011;31474;45.332;10.230;2022-12-18T03:06:20;29.15;;;15.68;;
45764;SDS011;31474;45.332;10.230;2022-12-18T03:08:47;23.92;;;16.35;;
45764;SDS011;31474;45.332;10.230;2022-12-18T03:11:15;23.27;;;15.25;;
45764;SDS011;31474;45.332;10.230;2022-12-18T03:14:01;21.48;;;15.02;;
45764;SDS011;31474;45.332;10.230;2022-12-18T03:16:29;22.80;;;15.90;;
45764;SDS011;31474;45.332;10.230;2022-12-18T03:18:58;22.42;;;16.00;;
45764;SDS011;31474;45.332;10.230;2022-12-18T03:21:51;24.20;;;17.10;;
45764;SDS011;31474;45.332;10.230;2022-12-18T03:24:19;25.33;;;15.50;;
45764;SDS011;31474;45.332;10.230;2022-12-18T03:26:47;19.83;;;14.93;;
45764;SDS011;31474;45.332;10.230;2022-12-18T03:29:39;30.05;;;18.67;;
45764;SDS011;31474;45.332;10.230;2022-12-18T03:32:12;26.30;;;16.77;;
45764;SDS011;31474;45.332;10.230;2022-12-18T03:34:45;22.77;;;15.00;;
45764;SDS011;31474;45.332;10.230;2022-12-18T03:37:14;25.33;;;15.90;;
45764;SDS011;31474;45.332;10.230;2022-12-18T03:39:40;25.23;;;15.00;;
45764;SDS011;31474;45.332;10.230;2022-12-18T03:44:44;26.13;;;16.63;;
45764;SDS011;31474;45.332;10.230;2022-12-18T03:50:07;26.88;;;16.33;;
45764;SDS011;31474;45.332;10.230;2022-12-18T03:52:36;26.13;;;17.00;;
45764;SDS011;31474;45.332;10.230;2022-12-18T03:55:07;29.52;;;16.95;;
45764;SDS011;31474;45.332;10.230;2022-12-18T03:57:34;32.30;;;19.90;;
45764;SDS011;31474;45.332;10.230;2022-12-18T04:00:11;32.38;;;19.92;;
45764;SDS011;31474;45.332;10.230;2022-12-18T04:02:40;25.15;;;17.65;;
45764;SDS011;31474;45.332;10.230;2022-12-18T04:05:10;28.50;;;18.92;;
45764;SDS011;31474;45.332;10.230;2022-12-18T04:07:38;26.92;;;17.95;;
45764;SDS011;31474;45.332;10.230;2022-12-18T04:10:04;28.90;;;17.73;;
45764;SDS011;31474;45.332;10.230;2022-12-18T04:12:32;25.83;;;16.63;;
45764;SDS011;31474;45.332;10.230;2022-12-18T04:14:57;23.67;;;16.15;;
45764;SDS011;31474;45.332;10.230;2022-12-18T04:17:23;29.45;;;17.33;;
45764;SDS011;31474;45.332;10.230;2022-12-18T04:19:49;24.27;;;16.73;;
45764;SDS011;31474;45.332;10.230;2022-12-18T04:22:15;26.67;;;17.90;;
45764;SDS011;31474;45.332;10.230;2022-12-18T04:24:41;24.08;;;16.08;;
45764;SDS011;31474;45.332;10.230;2022-12-18T04:27:07;27.17;;;15.63;;
45764;SDS011;31474;45.332;10.230;2022-12-18T04:29:33;24.02;;;16.10;;
45764;SDS011;31474;45.332;10.230;2022-12-18T04:31:58;23.23;;;16.67;;
45764;SDS011;31474;45.332;10.230;2022-12-18T04:34:24;21.67;;;16.10;;
45764;SDS011;31474;45.332;10.230;2022-12-18T04:36:50;28.33;;;17.00;;
45764;SDS011;31474;45.332;10.230;2022-12-18T04:39:16;28.13;;;16.83;;
45764;SDS011;31474;45.332;10.230;2022-12-18T04:41:41;24.35;;;16.25;;
45764;SDS011;31474;45.332;10.230;2022-12-18T04:44:07;23.63;;;16.77;;
45764;SDS011;31474;45.332;10.230;2022-12-18T04:46:33;22.25;;;15.55;;
45764;SDS011;31474;45.332;10.230;2022-12-18T04:48:58;24.75;;;16.55;;
45764;SDS011;31474;45.332;10.230;2022-12-18T04:51:24;23.75;;;14.73;;
45764;SDS011;31474;45.332;10.230;2022-12-18T04:53:49;24.50;;;15.32;;
45764;SDS011;31474;45.332;10.230;2022-12-18T04:56:15;23.40;;;15.65;;
45764;SDS011;31474;45.332;10.230;2022-12-18T04:58:42;22.77;;;15.77;;
45764;SDS011;31474;45.332;10.230;2022-12-18T05:01:09;23.08;;;15.57;;
45764;SDS011;31474;45.332;10.230;2022-12-18T05:03:36;22.40;;;15.52;;
45764;SDS011;31474;45.332;10.230;2022-12-18T05:06:02;22.95;;;13.68;;
45764;SDS011;31474;45.332;10.230;2022-12-18T05:08:29;25.98;;;16.42;;
45764;SDS011;31474;45.332;10.230;2022-12-18T05:11:05;19.52;;;13.65;;
45764;SDS011;31474;45.332;10.230;2022-12-18T05:13:36;19.00;;;13.70;;
45764;SDS011;31474;45.332;10.230;2022-12-18T05:16:03;19.67;;;14.52;;
45764;SDS011;31474;45.332;10.230;2022-12-18T05:18:29;26.33;;;16.90;;
45764;SDS011;31474;45.332;10.230;2022-12-18T05:20:56;19.27;;;14.45;;
45764;SDS011;31474;45.332;10.230;2022-12-18T05:23:22;24.55;;;15.27;;
45764;SDS011;31474;45.332;10.230;2022-12-18T05:28:22;22.17;;;13.60;;
45764;SDS011;31474;45.332;10.230;2022-12-18T05:30:54;18.95;;;14.60;;
45764;SDS011;31474;45.332;10.230;2022-12-18T05:33:22;26.25;;;16.75;;
45764;SDS011;31474;45.332;10.230;2022-12-18T05:35:53;20.23;;;12.77;;
45764;SDS011;31474;45.332;10.230;2022-12-18T05:38:21;25.75;;;15.85;;
45764;SDS011;31474;45.332;10.230;2022-12-18T05:40:49;20.02;;;12.48;;
45764;SDS011;31474;45.332;10.230;2022-12-18T05:43:15;21.58;;;14.25;;
45764;SDS011;31474;45.332;10.230;2022-12-18T05:45:41;30.63;;;16.17;;
45764;SDS011;31474;45.332;10.230;2022-12-18T05:48:07;19.70;;;14.40;;
45764;SDS011;31474;45.332;10.230;2022-12-18T05:50:36;17.52;;;13.27;;
45764;SDS011;31474;45.332;10.230;2022-12-18T05:53:03;21.30;;;14.13;;
45764;SDS011;31474;45.332;10.230;2022-12-18T05:55:32;24.15;;;16.27;;
45764;SDS011;31474;45.332;10.230;2022-12-18T05:57:59;20.05;;;13.55;;
45764;SDS011;31474;45.332;10.230;2022-12-18T06:00:25;27.60;;;16.02;;
45764;SDS011;31474;45.332;10.230;2022-12-18T06:02:51;17.98;;;13.90;;
45764;SDS011;31474;45.332;10.230;2022-12-18T06:05:16;25.55;;;15.23;;
45764;SDS011;31474;45.332;10.230;2022-12-18T06:07:42;26.70;;;15.27;;
45764;SDS011;31474;45.332;10.230;2022-12-18T06:10:08;22.25;;;14.35;;
45764;SDS011;31474;45.332;10.230;2022-12-18T06:12:33;27.80;;;15.30;;
45764;SDS011;31474;45.332;10.230;2022-12-18T06:14:59;32.78;;;17.67;;
45764;SDS011;31474;45.332;10.230;2022-12-18T06:17:29;23.60;;;15.23;;
45764;SDS011;31474;45.332;10.230;2022-12-18T06:19:55;30.35;;;15.80;;
45764;SDS011;31474;45.332;10.230;2022-12-18T06:22:21;24.55;;;15.90;;
45764;SDS011;31474;45.332;10.230;2022-12-18T06:24:47;21.90;;;14.90;;
45764;SDS011;31474;45.332;10.230;2022-12-18T06:27:12;30.65;;;14.70;;
45764;SDS011;31474;45.332;10.230;2022-12-18T06:29:39;22.63;;;15.43;;
45764;SDS011;31474;45.332;10.230;2022-12-18T06:32:04;29.08;;;17.25;;
45764;SDS011;31474;45.332;10.230;2022-12-18T06:34:30;21.58;;;15.05;;
45764;SDS011;31474;45.332;10.230;2022-12-18T06:36:57;23.98;;;15.45;;
45764;SDS011;31474;45.332;10.230;2022-12-18T06:39:22;29.20;;;17.35;;
45764;SDS011;31474;45.332;10.230;2022-12-18T06:41:48;23.60;;;15.40;;
45764;SDS011;31474;45.332;10.230;2022-12-18T06:44:14;21.17;;;14.07;;
45764;SDS011;31474;45.332;10.230;2022-12-18T06:46:39;23.60;;;15.35;;
45764;SDS011;31474;45.332;10.230;2022-12-18T06:49:05;28.90;;;16.67;;
45764;SDS011;31474;45.332;10.230;2022-12-18T06:51:31;23.83;;;14.13;;
45764;SDS011;31474;45.332;10.230;2022-12-18T06:53:57;20.38;;;13.45;;
45764;SDS011;31474;45.332;10.230;2022-12-18T06:56:22;31.58;;;18.25;;
45764;SDS011;31474;45.332;10.230;2022-12-18T06:58:48;25.65;;;14.57;;
45764;SDS011;31474;45.332;10.230;2022-12-18T07:01:14;23.65;;;15.10;;
45764;SDS011;31474;45.332;10.230;2022-12-18T07:03:40;30.77;;;18.23;;
45764;SDS011;31474;45.332;10.230;2022-12-18T07:06:06;39.92;;;22.65;;
45764;SDS011;31474;45.332;10.230;2022-12-18T07:08:37;34.17;;;20.95;;
45764;SDS011;31474;45.332;10.230;2022-12-18T07:11:03;36.28;;;21.02;;
45764;SDS011;31474;45.332;10.230;2022-12-18T07:13:30;43.58;;;21.77;;
45764;SDS011;31474;45.332;10.230;2022-12-18T07:16:02;50.33;;;29.63;;
45764;SDS011;31474;45.332;10.230;2022-12-18T07:18:39;46.47;;;28.23;;
45764;SDS011;31474;45.332;10.230;2022-12-18T07:21:05;49.67;;;27.40;;
45764;SDS011;31474;45.332;10.230;2022-12-18T07:23:32;34.33;;;20.92;;
45764;SDS011;31474;45.332;10.230;2022-12-18T07:26:09;37.47;;;22.95;;
45764;SDS011;31474;45.332;10.230;2022-12-18T07:28:37;37.80;;;25.10;;
45764;SDS011;31474;45.332;10.230;2022-12-18T07:31:05;35.40;;;20.83;;
45764;SDS011;31474;45.332;10.230;2022-12-18T07:33:33;31.02;;;20.77;;
45764;SDS011;31474;45.332;10.230;2022-12-18T07:36:02;38.00;;;21.05;;
45764;SDS011;31474;45.332;10.230;2022-12-18T07:38:31;40.78;;;23.40;;
45764;SDS011;31474;45.332;10.230;2022-12-18T07:41:00;36.17;;;20.10;;
45764;SDS011;31474;45.332;10.230;2022-12-18T07:43:27;36.70;;;21.48;;
45764;SDS011;31474;45.332;10.230;2022-12-18T07:45:53;37.90;;;20.60;;
45764;SDS011;31474;45.332;10.230;2022-12-18T07:48:19;31.65;;;18.27;;
45764;SDS011;31474;45.332;10.230;2022-12-18T07:50:45;40.33;;;19.98;;
45764;SDS011;31474;45.332;10.230;2022-12-18T07:53:10;31.38;;;17.65;;
45764;SDS011;31474;45.332;10.230;2022-12-18T07:55:36;32.28;;;17.55;;
45764;SDS011;31474;45.332;10.230;2022-12-18T07:58:05;30.58;;;17.30;;
45764;SDS011;31474;45.332;10.230;2022-12-18T08:00:30;34.25;;;18.98;;
45764;SDS011;31474;45.332;10.230;2022-12-18T08:02:56;32.15;;;18.80;;
45764;SDS011;31474;45.332;10.230;2022-12-18T08:05:22;40.13;;;19.35;;
45764;SDS011;31474;45.332;10.230;2022-12-18T08:07:48;29.15;;;16.88;;
45764;SDS011;31474;45.332;10.230;2022-12-18T08:10:14;32.47;;;17.52;;
45764;SDS011;31474;45.332;10.230;2022-12-18T08:12:40;32.03;;;18.40;;
45764;SDS011;31474;45.332;10.230;2022-12-18T08:15:06;37.28;;;20.75;;
45764;SDS011;31474;45.332;10.230;2022-12-18T08:17:32;29.50;;;19.00;;
45764;SDS011;31474;45.332;10.230;2022-12-18T08:19:57;47.60;;;26.17;;
45764;SDS011;31474;45.332;10.230;2022-12-18T08:22:23;46.40;;;28.17;;
45764;SDS011;31474;45.332;10.230;2022-12-18T08:24:49;46.05;;;26.48;;
45764;SDS011;31474;45.332;10.230;2022-12-18T08:27:15;39.80;;;22.33;;
45764;SDS011;31474;45.332;10.230;2022-12-18T08:29:40;109.93;;;49.75;;
45764;SDS011;31474;45.332;10.230;2022-12-18T08:32:06;76.88;;;42.45;;
45764;SDS011;31474;45.332;10.230;2022-12-18T08:34:32;50.38;;;27.50;;
45764;SDS011;31474;45.332;10.230;2022-12-18T08:36:58;39.40;;;22.63;;
45764;SDS011;31474;45.332;10.230;2022-12-18T08:39:23;37.97;;;23.95;;
45764;SDS011;31474;45.332;10.230;2022-12-18T08:41:49;35.00;;;21.88;;
45764;SDS011;31474;45.332;10.230;2022-12-18T08:44:33;38.85;;;20.73;;
45764;SDS011;31474;45.332;10.230;2022-12-18T08:47:05;33.03;;;21.65;;
45764;SDS011;31474;45.332;10.230;2022-12-18T08:49:31;35.95;;;20.40;;
45764;SDS011;31474;45.332;10.230;2022-12-18T08:51:57;34.25;;;19.13;;
45764;SDS011;31474;45.332;10.230;2022-12-18T08:54:23;29.70;;;18.17;;
45764;SDS011;31474;45.332;10.230;2022-12-18T08:56:49;31.70;;;18.50;;
45764;SDS011;31474;45.332;10.230;2022-12-18T08:59:18;33.47;;;18.70;;
45764;SDS011;31474;45.332;10.230;2022-12-18T09:01:44;30.38;;;19.58;;
45764;SDS011;31474;45.332;10.230;2022-12-18T09:04:11;32.90;;;18.70;;
45764;SDS011;31474;45.332;10.230;2022-12-18T09:06:37;29.88;;;17.55;;
45764;SDS011;31474;45.332;10.230;2022-12-18T09:09:03;33.78;;;18.08;;
45764;SDS011;31474;45.332;10.230;2022-12-18T09:11:29;31.65;;;18.02;;
45764;SDS011;31474;45.332;10.230;2022-12-18T09:13:56;30.05;;;17.92;;
45764;SDS011;31474;45.332;10.230;2022-12-18T09:16:23;31.10;;;19.30;;
45764;SDS011;31474;45.332;10.230;2022-12-18T09:18:50;32.78;;;18.05;;
45764;SDS011;31474;45.332;10.230;2022-12-18T09:21:17;34.35;;;18.85;;
45764;SDS011;31474;45.332;10.230;2022-12-18T09:23:51;33.35;;;18.55;;
45764;SDS011;31474;45.332;10.230;2022-12-18T09:26:18;36.55;;;19.75;;
45764;SDS011;31474;45.332;10.230;2022-12-18T09:28:45;33.97;;;20.23;;
45764;SDS011;31474;45.332;10.230;2022-12-18T09:31:11;31.67;;;20.02;;
45764;SDS011;31474;45.332;10.230;2022-12-18T09:33:37;39.10;;;19.88;;
45764;SDS011;31474;45.332;10.230;2022-12-18T09:36:03;34.80;;;19.45;;
45764;SDS011;31474;45.332;10.230;2022-12-18T09:38:31;36.20;;;18.83;;
45764;SDS011;31474;45.332;10.230;2022-12-18T09:40:59;37.13;;;18.92;;
45764;SDS011;31474;45.332;10.230;2022-12-18T09:43:35;40.75;;;26.92;;
45764;SDS011;31474;45.332;10.230;2022-12-18T09:46:07;45.92;;;25.20;;
45764;SDS011;31474;45.332;10.230;2022-12-18T09:48:46;43.63;;;24.08;;
45764;SDS011;31474;45.332;10.230;2022-12-18T09:51:15;129.00;;;47.83;;
45764;SDS011;31474;45.332;10.230;2022-12-18T09:53:44;98.35;;;41.53;;
45764;SDS011;31474;45.332;10.230;2022-12-18T09:56:16;77.82;;;34.88;;
45764;SDS011;31474;45.332;10.230;2022-12-18T09:58:48;46.30;;;24.85;;
45764;SDS011;31474;45.332;10.230;2022-12-18T10:01:39;79.93;;;38.85;;
45764;SDS011;31474;45.332;10.230;2022-12-18T10:04:04;75.53;;;39.08;;
45764;SDS011;31474;45.332;10.230;2022-12-18T10:09:37;42.45;;;24.55;;
45764;SDS011;31474;45.332;10.230;2022-12-18T10:12:32;41.03;;;23.02;;
45764;SDS011;31474;45.332;10.230;2022-12-18T10:15:15;34.92;;;21.33;;
45764;SDS011;31474;45.332;10.230;2022-12-18T10:17:58;33.50;;;20.75;;
45764;SDS011;31474;45.332;10.230;2022-12-18T10:20:49;38.97;;;23.48;;
45764;SDS011;31474;45.332;10.230;2022-12-18T10:26:07;74.15;;;35.15;;
45764;SDS011;31474;45.332;10.230;2022-12-18T10:28:38;58.40;;;33.30;;
45764;SDS011;31474;45.332;10.230;2022-12-18T10:31:05;35.08;;;22.30;;
45764;SDS011;31474;45.332;10.230;2022-12-18T10:33:32;28.55;;;17.98;;
45764;SDS011;31474;45.332;10.230;2022-12-18T10:35:59;27.27;;;17.98;;
45764;SDS011;31474;45.332;10.230;2022-12-18T10:38:29;28.63;;;19.00;;
45764;SDS011;31474;45.332;10.230;2022-12-18T10:43:37;25.77;;;15.90;;
45764;SDS011;31474;45.332;10.230;2022-12-18T10:48:33;23.38;;;16.60;;
45764;SDS011;31474;45.332;10.230;2022-12-18T10:51:05;23.38;;;15.57;;
45764;SDS011;31474;45.332;10.230;2022-12-18T10:53:33;23.67;;;16.42;;
45764;SDS011;31474;45.332;10.230;2022-12-18T10:56:02;28.67;;;16.38;;
45764;SDS011;31474;45.332;10.230;2022-12-18T10:58:36;24.60;;;16.38;;
45764;SDS011;31474;45.332;10.230;2022-12-18T11:01:13;23.90;;;15.20;;
45764;SDS011;31474;45.332;10.230;2022-12-18T11:06:12;20.98;;;13.98;;
45764;SDS011;31474;45.332;10.230;2022-12-18T11:08:37;22.50;;;15.07;;
45764;SDS011;31474;45.332;10.230;2022-12-18T11:11:07;21.10;;;14.80;;
45764;SDS011;31474;45.332;10.230;2022-12-18T11:13:48;19.77;;;14.30;;
45764;SDS011;31474;45.332;10.230;2022-12-18T11:16:24;20.52;;;14.55;;
45764;SDS011;31474;45.332;10.230;2022-12-18T11:18:50;24.65;;;13.48;;
45764;SDS011;31474;45.332;10.230;2022-12-18T11:21:16;24.38;;;15.02;;
45764;SDS011;31474;45.332;10.230;2022-12-18T11:23:51;24.33;;;15.27;;
45764;SDS011;31474;45.332;10.230;2022-12-18T11:26:18;24.15;;;15.50;;
45764;SDS011;31474;45.332;10.230;2022-12-18T11:29:07;23.48;;;14.13;;
45764;SDS011;31474;45.332;10.230;2022-12-18T11:31:34;24.60;;;14.95;;
45764;SDS011;31474;45.332;10.230;2022-12-18T11:36:51;43.85;;;22.63;;
45764;SDS011;31474;45.332;10.230;2022-12-18T11:42:38;23.42;;;14.90;;
45764;SDS011;31474;45.332;10.230;2022-12-18T11:47:51;25.23;;;15.15;;
45764;SDS011;31474;45.332;10.230;2022-12-18T11:50:38;24.33;;;16.73;;
45764;SDS011;31474;45.332;10.230;2022-12-18T11:53:17;22.63;;;14.98;;
45764;SDS011;31474;45.332;10.230;2022-12-18T11:56:04;18.92;;;13.13;;
45764;SDS011;31474;45.332;10.230;2022-12-18T12:16:48;20.20;;;12.93;;
45764;SDS011;31474;45.332;10.230;2022-12-18T12:29:53;19.98;;;13.57;;
45764;SDS011;31474;45.332;10.230;2022-12-18T12:35:46;21.45;;;12.77;;
45764;SDS011;31474;45.332;10.230;2022-12-18T12:41:27;21.10;;;13.90;;
45764;SDS011;31474;45.332;10.230;2022-12-18T12:44:07;21.10;;;13.75;;
45764;SDS011;31474;45.332;10.230;2022-12-18T12:46:39;19.70;;;13.65;;
45764;SDS011;31474;45.332;10.230;2022-12-18T12:49:14;22.48;;;13.27;;
45764;SDS011;31474;45.332;10.230;2022-12-18T12:51:43;20.60;;;14.48;;
45764;SDS011;31474;45.332;10.230;2022-12-18T12:54:19;21.98;;;13.73;;
45764;SDS011;31474;45.332;10.230;2022-12-18T13:07:16;20.10;;;12.75;;
45764;SDS011;31474;45.332;10.230;2022-12-18T13:12:37;20.25;;;12.50;;
45764;SDS011;31474;45.332;10.230;2022-12-18T13:15:27;17.10;;;12.60;;
45764;SDS011;31474;45.332;10.230;2022-12-18T13:25:52;33.95;;;19.40;;
45764;SDS011;31474;45.332;10.230;2022-12-18T13:31:11;61.28;;;28.70;;
45764;SDS011;31474;45.332;10.230;2022-12-18T13:33:39;42.65;;;23.00;;
45764;SDS011;31474;45.332;10.230;2022-12-18T13:41:43;27.15;;;16.08;;
45764;SDS011;31474;45.332;10.230;2022-12-18T13:46:57;24.75;;;15.95;;
45764;SDS011;31474;45.332;10.230;2022-12-18T13:49:38;30.85;;;15.20;;
45764;SDS011;31474;45.332;10.230;2022-12-18T13:52:17;23.95;;;15.00;;
45764;SDS011;31474;45.332;10.230;2022-12-18T13:54:55;26.38;;;15.77;;
45764;SDS011;31474;45.332;10.230;2022-12-18T13:57:41;27.30;;;15.88;;
45764;SDS011;31474;45.332;10.230;2022-12-18T14:02:50;24.83;;;14.63;;
45764;SDS011;31474;45.332;10.230;2022-12-18T14:07:59;22.88;;;14.20;;
45764;SDS011;31474;45.332;10.230;2022-12-18T14:10:39;27.10;;;15.80;;
45764;SDS011;31474;45.332;10.230;2022-12-18T14:13:10;22.58;;;13.98;;
45764;SDS011;31474;45.332;10.230;2022-12-18T14:15:43;24.98;;;15.15;;
45764;SDS011;31474;45.332;10.230;2022-12-18T14:20:46;26.10;;;16.58;;
45764;SDS011;31474;45.332;10.230;2022-12-18T14:26:20;26.20;;;15.27;;
45764;SDS011;31474;45.332;10.230;2022-12-18T14:28:58;26.70;;;16.58;;
45764;SDS011;31474;45.332;10.230;2022-12-18T14:31:27;27.85;;;17.20;;
45764;SDS011;31474;45.332;10.230;2022-12-18T14:33:54;26.35;;;15.73;;
45764;SDS011;31474;45.332;10.230;2022-12-18T14:36:21;24.75;;;15.75;;
45764;SDS011;31474;45.332;10.230;2022-12-18T14:38:55;26.73;;;16.27;;
45764;SDS011;31474;45.332;10.230;2022-12-18T14:41:22;25.00;;;16.27;;
45764;SDS011;31474;45.332;10.230;2022-12-18T14:43:50;25.92;;;16.67;;
45764;SDS011;31474;45.332;10.230;2022-12-18T14:46:34;27.58;;;17.63;;
45764;SDS011;31474;45.332;10.230;2022-12-18T14:49:02;26.45;;;16.30;;
45764;SDS011;31474;45.332;10.230;2022-12-18T14:51:31;26.73;;;16.60;;
45764;SDS011;31474;45.332;10.230;2022-12-18T14:53:59;28.73;;;16.63;;
45764;SDS011;31474;45.332;10.230;2022-12-18T14:56:31;26.20;;;17.20;;
45764;SDS011;31474;45.332;10.230;2022-12-18T14:59:03;25.90;;;15.90;;
45764;SDS011;31474;45.332;10.230;2022-12-18T15:01:38;26.52;;;17.35;;
45764;SDS011;31474;45.332;10.230;2022-12-18T15:07:21;29.67;;;17.63;;
45764;SDS011;31474;45.332;10.230;2022-12-18T15:14:59;28.63;;;17.52;;
45764;SDS011;31474;45.332;10.230;2022-12-18T15:17:25;29.95;;;17.70;;
45764;SDS011;31474;45.332;10.230;2022-12-18T15:19:52;24.77;;;16.60;;
45764;SDS011;31474;45.332;10.230;2022-12-18T15:22:26;32.58;;;17.27;;
45764;SDS011;31474;45.332;10.230;2022-12-18T15:24:54;26.60;;;17.48;;
45764;SDS011;31474;45.332;10.230;2022-12-18T15:27:22;30.50;;;18.33;;
45764;SDS011;31474;45.332;10.230;2022-12-18T15:32:37;32.22;;;18.85;;
45764;SDS011;31474;45.332;10.230;2022-12-18T15:37:40;30.73;;;17.42;;
45764;SDS011;31474;45.332;10.230;2022-12-18T15:40:08;30.08;;;19.15;;
45764;SDS011;31474;45.332;10.230;2022-12-18T15:42:38;32.13;;;17.85;;
45764;SDS011;31474;45.332;10.230;2022-12-18T15:45:22;31.45;;;18.45;;
45764;SDS011;31474;45.332;10.230;2022-12-18T15:47:48;28.45;;;18.00;;
45764;SDS011;31474;45.332;10.230;2022-12-18T15:50:13;31.15;;;17.63;;
45764;SDS011;31474;45.332;10.230;2022-12-18T15:52:41;32.80;;;18.73;;
45764;SDS011;31474;45.332;10.230;2022-12-18T15:55:12;31.02;;;17.92;;
45764;SDS011;31474;45.332;10.230;2022-12-18T15:57:57;28.48;;;18.52;;
45764;SDS011;31474;45.332;10.230;2022-12-18T16:00:23;33.28;;;20.60;;
45764;SDS011;31474;45.332;10.230;2022-12-18T16:02:49;42.33;;;23.48;;
45764;SDS011;31474;45.332;10.230;2022-12-18T16:05:15;46.33;;;25.23;;
45764;SDS011;31474;45.332;10.230;2022-12-18T16:07:42;33.75;;;22.83;;
45764;SDS011;31474;45.332;10.230;2022-12-18T16:10:09;35.97;;;22.05;;
45764;SDS011;31474;45.332;10.230;2022-12-18T16:12:35;33.45;;;20.27;;
45764;SDS011;31474;45.332;10.230;2022-12-18T16:15:01;35.10;;;20.10;;
45764;SDS011;31474;45.332;10.230;2022-12-18T16:17:29;30.92;;;19.63;;
45764;SDS011;31474;45.332;10.230;2022-12-18T16:19:55;33.40;;;20.13;;
45764;SDS011;31474;45.332;10.230;2022-12-18T16:22:27;35.72;;;19.88;;
45764;SDS011;31474;45.332;10.230;2022-12-18T16:24:55;31.42;;;19.17;;
45764;SDS011;31474;45.332;10.230;2022-12-18T16:27:22;30.30;;;19.60;;
45764;SDS011;31474;45.332;10.230;2022-12-18T16:29:48;32.63;;;19.67;;
45764;SDS011;31474;45.332;10.230;2022-12-18T16:32:15;29.15;;;17.63;;
45764;SDS011;31474;45.332;10.230;2022-12-18T16:34:45;31.70;;;17.95;;
45764;SDS011;31474;45.332;10.230;2022-12-18T16:37:12;29.48;;;18.77;;
45764;SDS011;31474;45.332;10.230;2022-12-18T16:39:39;27.88;;;17.98;;
45764;SDS011;31474;45.332;10.230;2022-12-18T16:42:13;32.40;;;19.15;;
45764;SDS011;31474;45.332;10.230;2022-12-18T16:44:44;33.67;;;19.55;;
45764;SDS011;31474;45.332;10.230;2022-12-18T16:47:10;35.47;;;19.08;;
45764;SDS011;31474;45.332;10.230;2022-12-18T16:49:36;32.97;;;19.65;;